Time;durP1;ratioP1;P1;durP2;ratioP2;P2;SDS_P1;SDS_P2;PMS_P1;PMS_P2;Temp;Humidity;BMP_temperature;BMP_pressure;BME280_temperature;BME280_humidity;BME280_pressure;Samples;Min_cycle;Max_cycle;Signal;HPM_P1;HPM_P2
2022/03/11 00:02:16;;;;;;;8.00;4.38;;;;;;;14.89;26.21;97390.47;5034332;28;20021;-27
2022/03/11 00:04:42;;;;;;;8.23;4.55;;;;;;;14.84;26.10;97395.69;5034051;28;20409;-27
2022/03/11 00:07:08;;;;;;;7.97;4.65;;;;;;;14.86;26.27;97390.56;5038727;28;20386;-26
2022/03/11 00:09:34;;;;;;;9.18;4.70;;;;;;;14.86;26.31;97396.78;5048576;28;20068;-27
2022/03/11 00:12:00;;;;;;;10.10;4.88;;;;;;;14.79;25.91;97390.75;5036508;28;20426;-27
2022/03/11 00:14:25;;;;;;;9.93;4.88;;;;;;;14.82;26.05;97385.22;5053655;28;20021;-27
2022/03/11 00:16:51;;;;;;;7.07;4.43;;;;;;;14.82;26.05;97393.41;5044416;28;20038;-27
2022/03/11 00:19:16;;;;;;;7.57;4.35;;;;;;;14.87;26.19;97397.53;5042603;28;20033;-27
2022/03/11 00:21:42;;;;;;;7.75;4.50;;;;;;;14.78;25.75;97397.41;5051913;28;20037;-27
2022/03/11 00:24:08;;;;;;;7.45;4.28;;;;;;;14.85;25.93;97394.47;5053533;28;20037;-26
2022/03/11 00:26:34;;;;;;;7.82;4.57;;;;;;;14.82;25.97;97398.84;5053482;28;20039;-27
2022/03/11 00:29:00;;;;;;;9.13;4.93;;;;;;;14.89;26.13;97397.88;5050486;28;20029;-27
2022/03/11 00:31:27;;;;;;;7.82;4.55;;;;;;;14.78;25.96;97400.13;5053300;28;20378;-26
2022/03/11 00:33:54;;;;;;;7.15;4.25;;;;;;;14.82;25.64;97393.41;5052337;28;20025;-28
2022/03/11 00:36:19;;;;;;;9.02;4.55;;;;;;;14.78;25.81;97397.41;5050087;28;20029;-27
2022/03/11 00:38:45;;;;;;;8.10;4.70;;;;;;;14.77;25.77;97398.59;5052593;28;20444;-27
2022/03/11 00:41:11;;;;;;;8.93;5.20;;;;;;;14.79;25.71;97396.97;5053514;28;20374;-27
2022/03/11 00:43:36;;;;;;;9.02;4.50;;;;;;;14.75;25.89;97404.50;5029960;28;20087;-27
2022/03/11 00:46:02;;;;;;;9.95;5.15;;;;;;;14.71;25.81;97403.84;5044775;28;20474;-28
2022/03/11 00:48:28;;;;;;;8.88;5.00;;;;;;;14.73;26.16;97404.91;5036235;28;20071;-27
2022/03/11 00:50:54;;;;;;;8.93;4.78;;;;;;;14.72;26.14;97402.63;5035349;28;20427;-27
2022/03/11 00:53:19;;;;;;;8.60;5.15;;;;;;;14.70;26.26;97405.78;5043469;28;20033;-26
2022/03/11 00:55:46;;;;;;;7.97;4.75;;;;;;;14.75;26.17;97396.31;5042658;28;20025;-28
2022/03/11 00:58:11;;;;;;;8.77;5.22;;;;;;;14.72;25.99;97395.19;5050948;28;20112;-26
2022/03/11 01:00:37;;;;;;;8.70;4.95;;;;;;;14.66;26.32;97396.94;5036451;28;20116;-27
2022/03/11 01:03:03;;;;;;;9.05;4.82;;;;;;;14.67;26.25;97395.72;5035473;28;20033;-26
2022/03/11 01:05:28;;;;;;;7.55;4.63;;;;;;;14.65;25.89;97384.47;5040692;28;20048;-26
2022/03/11 01:07:56;;;;;;;9.35;5.55;;;;;;;14.62;25.88;97385.31;5054911;28;20032;-26
2022/03/11 01:10:22;;;;;;;7.68;4.57;;;;;;;14.70;25.93;97388.66;5054326;28;20406;-26
2022/03/11 01:12:48;;;;;;;9.45;4.93;;;;;;;14.70;26.14;97388.66;5054729;28;20062;-27
2022/03/11 01:15:13;;;;;;;9.50;4.80;;;;;;;14.63;25.65;97384.13;5051417;28;20025;-27
2022/03/11 01:17:39;;;;;;;8.45;4.93;;;;;;;14.67;25.60;97378.56;5046717;28;20474;-28
2022/03/11 01:20:06;;;;;;;8.35;4.90;;;;;;;14.56;25.80;97383.56;5054769;28;20028;-26
2022/03/11 01:22:32;;;;;;;8.80;5.22;;;;;;;14.60;26.18;97379.50;5043692;28;20374;-26
2022/03/11 01:25:01;;;;;;;9.30;5.13;;;;;;;14.60;25.80;97374.06;5049372;28;20069;-27
2022/03/11 01:27:26;;;;;;;9.80;5.32;;;;;;;14.65;25.82;97380.97;5039957;28;20382;-28
2022/03/11 01:29:52;;;;;;;8.77;5.20;;;;;;;14.59;26.27;97379.94;5040144;28;20017;-29
2022/03/11 01:32:17;;;;;;;8.50;5.00;;;;;;;14.58;25.94;97376.47;5053344;28;20039;-26
2022/03/11 01:34:43;;;;;;;10.43;5.45;;;;;;;14.62;26.40;97377.13;5054412;28;20465;-28
2022/03/11 01:37:09;;;;;;;9.93;5.20;;;;;;;14.60;26.08;97376.78;5034775;28;20021;-27
2022/03/11 01:39:34;;;;;;;9.30;5.65;;;;;;;14.54;26.18;97380.47;5034338;28;20025;-27
2022/03/11 01:42:00;;;;;;;9.75;5.28;;;;;;;14.54;26.15;97381.25;5040943;28;20024;-26
2022/03/11 01:44:27;;;;;;;10.18;5.78;;;;;;;14.57;26.15;97380.41;5054134;28;20536;-27
2022/03/11 01:46:53;;;;;;;10.60;5.90;;;;;;;14.50;25.87;97371.59;5052313;28;20029;-27
2022/03/11 01:49:19;;;;;;;9.82;5.45;;;;;;;14.52;26.05;97374.69;5051021;28;20503;-26
2022/03/11 01:51:45;;;;;;;11.02;5.45;;;;;;;14.53;26.27;97374.25;5034233;28;20033;-27
2022/03/11 01:54:11;;;;;;;9.98;5.70;;;;;;;14.60;25.92;97376.78;5034337;28;20025;-26
2022/03/11 01:56:38;;;;;;;8.60;4.95;;;;;;;14.56;26.10;97376.13;5034169;28;20055;-26
2022/03/11 01:59:05;;;;;;;11.13;6.13;;;;;;;14.46;26.08;97382.63;5034762;28;20029;-26
2022/03/11 02:01:30;;;;;;;11.27;5.75;;;;;;;14.44;26.37;97376.84;5034820;28;20033;-26
2022/03/11 02:03:59;;;;;;;9.98;5.75;;;;;;;14.53;26.11;97379.72;5039869;28;20071;-28
2022/03/11 02:06:26;;;;;;;9.80;5.30;;;;;;;14.53;26.22;97382.44;5032766;28;20026;-26
2022/03/11 02:08:54;;;;;;;10.75;5.45;;;;;;;14.47;26.29;97381.41;5033928;28;20367;-26
2022/03/11 02:11:19;;;;;;;11.32;5.50;;;;;;;14.46;26.26;97377.19;5033829;28;20490;-27
2022/03/11 02:13:50;;;;;;;10.27;5.15;;;;;;;14.43;26.17;97380.75;5037563;28;20029;-26
2022/03/11 02:16:27;;;;;;;10.50;5.38;;;;;;;14.42;26.28;97373.00;5038208;28;20370;-26
2022/03/11 02:18:54;;;;;;;11.55;6.32;;;;;;;14.40;26.13;97376.16;5053542;28;20036;-26
2022/03/11 02:21:22;;;;;;;8.50;5.00;;;;;;;14.44;25.99;97374.09;5052943;28;20025;-26
2022/03/11 02:23:50;;;;;;;9.98;5.82;;;;;;;14.43;26.03;97369.84;5053660;28;20029;-27
2022/03/11 02:26:17;;;;;;;9.82;5.95;;;;;;;14.33;26.39;97370.84;5052365;28;20027;-27
2022/03/11 02:28:44;;;;;;;10.50;5.57;;;;;;;14.43;26.40;97383.47;5033903;28;20366;-27
2022/03/11 02:31:09;;;;;;;10.15;5.15;;;;;;;14.37;26.36;97382.41;5034672;28;20026;-29
2022/03/11 02:33:35;;;;;;;11.07;6.07;;;;;;;14.37;26.08;97383.19;5033816;28;20041;-26
2022/03/11 02:36:02;;;;;;;13.23;6.07;;;;;;;14.36;26.08;97381.66;5033465;28;20052;-26
2022/03/11 02:38:27;;;;;;;11.38;5.88;;;;;;;14.32;26.13;97380.22;5033687;28;20035;-26
2022/03/11 02:40:53;;;;;;;10.98;5.97;;;;;;;14.38;26.64;97389.41;5033242;28;20389;-26
2022/03/11 02:43:19;;;;;;;10.40;6.00;;;;;;;14.33;26.31;97387.22;5051436;28;20502;-27
2022/03/11 02:45:45;;;;;;;9.48;5.85;;;;;;;14.36;26.22;97386.34;5053433;28;20393;-27
2022/03/11 02:48:11;;;;;;;9.93;5.85;;;;;;;14.28;26.57;97390.44;5034963;28;20037;-27
2022/03/11 02:50:37;;;;;;;11.48;5.93;;;;;;;14.29;26.47;97386.53;5042178;28;20055;-27
2022/03/11 02:53:03;;;;;;;11.90;6.78;;;;;;;14.27;26.30;97389.69;5051668;28;20044;-28
2022/03/11 02:55:28;;;;;;;10.07;5.38;;;;;;;14.26;26.53;97388.16;5047940;28;20020;-27
2022/03/11 02:57:54;;;;;;;13.10;6.35;;;;;;;14.22;26.59;97386.69;5039595;28;20450;-28
2022/03/11 03:00:20;;;;;;;11.50;6.28;;;;;;;14.29;26.48;97386.53;5033424;28;20033;-26
2022/03/11 03:02:45;;;;;;;11.43;5.97;;;;;;;14.29;26.39;97381.84;5033376;28;20072;-26
2022/03/11 03:05:12;;;;;;;12.48;7.20;;;;;;;14.27;26.51;97389.69;5051151;28;20513;-26
2022/03/11 03:07:37;;;;;;;11.43;6.18;;;;;;;14.30;26.64;97377.16;5050431;28;20035;-27
2022/03/11 03:10:03;;;;;;;12.88;6.43;;;;;;;14.28;26.72;97385.75;5033572;28;20100;-27
2022/03/11 03:12:29;;;;;;;12.00;6.90;;;;;;;14.27;26.64;97381.50;5044135;28;20060;-26
2022/03/11 03:14:54;;;;;;;10.52;6.10;;;;;;;14.23;26.53;97383.53;5053244;28;20477;-26
2022/03/11 03:17:21;;;;;;;13.38;6.82;;;;;;;14.20;26.91;97383.66;5048511;28;20078;-27
2022/03/11 03:19:47;;;;;;;11.55;6.85;;;;;;;14.23;26.63;97382.78;5053299;28;20021;-26
2022/03/11 03:22:14;;;;;;;10.48;6.15;;;;;;;14.26;26.71;97381.91;5045105;28;20057;-27
2022/03/11 03:24:39;;;;;;;13.50;6.82;;;;;;;14.23;26.69;97378.06;5033043;28;20053;-26
2022/03/11 03:27:05;;;;;;;10.48;5.93;;;;;;;14.20;26.80;97375.47;5039080;28;20083;-28
2022/03/11 03:29:31;;;;;;;11.40;6.50;;;;;;;14.26;26.92;97382.69;5052672;28;20474;-29
2022/03/11 03:31:58;;;;;;;10.07;6.13;;;;;;;14.19;27.05;97382.09;5051498;28;20064;-28
2022/03/11 03:34:35;;;;;;;10.40;6.10;;;;;;;14.22;26.93;97383.97;5052505;28;20024;-26
2022/03/11 03:37:04;;;;;;;10.88;5.88;;;;;;;14.21;26.84;97377.00;5026589;28;20020;-27
2022/03/11 03:39:30;;;;;;;13.05;6.55;;;;;;;14.22;26.58;97381.22;5051327;28;20545;-27
2022/03/11 03:41:57;;;;;;;11.32;6.97;;;;;;;14.18;27.04;97381.34;5046207;28;20109;-27
2022/03/11 03:44:22;;;;;;;12.02;6.47;;;;;;;14.17;27.16;97390.72;5031705;28;20466;-27
2022/03/11 03:46:48;;;;;;;10.38;5.90;;;;;;;14.19;27.01;97384.84;5041724;28;20029;-27
2022/03/11 03:49:14;;;;;;;10.63;5.75;;;;;;;14.24;27.05;97384.31;5041654;28;20433;-26
2022/03/11 03:51:39;;;;;;;10.07;5.95;;;;;;;14.22;26.97;97397.59;5051018;28;20024;-27
2022/03/11 03:54:10;;;;;;;12.18;6.78;;;;;;;14.11;27.30;97386.19;5052857;28;20378;-26
2022/03/11 03:56:39;;;;;;;13.45;6.97;;;;;;;14.23;27.11;97382.78;5055329;28;20021;-29
2022/03/11 03:59:07;;;;;;;12.88;6.95;;;;;;;14.14;26.97;97377.91;5043267;28;20049;-26
2022/03/11 04:01:34;;;;;;;10.88;6.53;;;;;;;14.18;27.34;97375.88;5024502;28;20100;-26
2022/03/11 04:04:00;;;;;;;9.90;6.10;;;;;;;14.15;27.02;97373.22;5046858;28;20430;-27
2022/03/11 04:06:28;;;;;;;11.45;6.15;;;;;;;14.11;27.46;97365.13;5036314;28;20091;-27
2022/03/11 04:08:54;;;;;;;10.85;5.93;;;;;;;14.13;27.28;97370.16;5036361;28;20036;-28
2022/03/11 04:11:20;;;;;;;11.50;5.60;;;;;;;14.15;27.15;97374.00;5044446;28;20104;-26
2022/03/11 04:13:46;;;;;;;9.68;5.25;;;;;;;14.19;27.24;97382.09;5041635;28;20087;-27
2022/03/11 04:16:11;;;;;;;10.73;5.68;;;;;;;14.14;27.34;97377.16;5055888;28;20106;-27
2022/03/11 04:18:37;;;;;;;10.43;5.72;;;;;;;14.13;27.54;97384.56;5052011;28;20385;-27
2022/03/11 04:21:03;;;;;;;9.05;5.32;;;;;;;14.11;27.24;97375.28;5044300;28;20029;-27
2022/03/11 04:23:28;;;;;;;11.55;5.97;;;;;;;14.18;27.33;97386.78;5036020;28;20037;-27
2022/03/11 04:25:54;;;;;;;10.95;6.07;;;;;;;14.17;27.42;97381.75;5035754;28;20029;-27
2022/03/11 04:28:20;;;;;;;10.98;5.55;;;;;;;14.06;27.69;97378.53;5035782;28;20033;-26
2022/03/11 04:30:45;;;;;;;9.95;5.53;;;;;;;14.12;27.47;97387.72;5041730;28;20028;-27
2022/03/11 04:33:11;;;;;;;10.95;5.85;;;;;;;14.16;27.16;97382.94;5045383;28;20041;-29
2022/03/11 04:35:36;;;;;;;9.45;5.18;;;;;;;14.17;27.27;97384.50;5035813;28;20452;-27
2022/03/11 04:38:02;;;;;;;9.63;5.13;;;;;;;14.08;27.15;97382.38;5035762;28;20025;-26
2022/03/11 04:40:28;;;;;;;9.43;4.57;;;;;;;14.07;27.42;97383.56;5040203;28;20025;-27
2022/03/11 04:42:53;;;;;;;13.30;5.72;;;;;;;14.09;27.38;97383.13;5042097;28;20021;-26
2022/03/11 04:45:19;;;;;;;11.68;5.60;;;;;;;14.14;27.13;97375.19;5035917;28;20104;-27
2022/03/11 04:47:46;;;;;;;8.55;5.15;;;;;;;14.16;27.13;97377.50;5035374;28;20129;-27
2022/03/11 04:50:11;;;;;;;10.98;5.30;;;;;;;14.05;27.30;97379.72;5036660;28;20026;-27
2022/03/11 04:52:37;;;;;;;9.45;5.05;;;;;;;14.02;27.77;97389.50;5055128;28;20035;-26
2022/03/11 04:55:03;;;;;;;10.50;5.53;;;;;;;14.12;27.54;97388.47;5054944;28;20060;-27
2022/03/11 04:57:28;;;;;;;9.40;4.68;;;;;;;14.14;27.54;97391.56;5054330;28;20389;-26
2022/03/11 04:59:54;;;;;;;9.80;4.68;;;;;;;14.15;27.44;97397.78;5035725;28;20018;-27
2022/03/11 05:02:29;;;;;;;10.30;4.80;;;;;;;14.14;27.18;97398.97;5046688;28;20018;-27
2022/03/11 05:04:55;;;;;;;9.48;5.10;;;;;;;14.07;27.41;97393.69;5037408;28;20041;-27
2022/03/11 05:07:22;;;;;;;8.07;5.15;;;;;;;14.10;27.49;97401.00;5034961;28;20482;-27
2022/03/11 05:09:47;;;;;;;8.75;5.28;;;;;;;14.09;27.28;97399.50;5033783;28;20087;-26
2022/03/11 05:12:13;;;;;;;9.48;5.70;;;;;;;14.07;27.73;97402.66;5035026;28;20029;-27
2022/03/11 05:14:39;;;;;;;8.13;4.63;;;;;;;14.08;27.40;97401.47;5041778;28;20543;-26
2022/03/11 05:17:05;;;;;;;8.63;4.78;;;;;;;14.12;27.20;97409.53;5054121;28;20028;-28
2022/03/11 05:19:30;;;;;;;8.60;5.32;;;;;;;14.11;27.43;97410.72;5054760;28;20029;-26
2022/03/11 05:21:56;;;;;;;7.15;4.72;;;;;;;14.12;27.43;97415.00;5054374;28;20021;-26
2022/03/11 05:24:22;;;;;;;11.02;4.70;;;;;;;14.08;27.52;97404.19;5051915;28;20492;-26
2022/03/11 05:26:48;;;;;;;7.47;4.60;;;;;;;14.08;27.74;97403.41;5054468;28;20032;-26
2022/03/11 05:29:15;;;;;;;8.10;4.68;;;;;;;14.12;27.27;97407.56;5053455;28;20045;-26
2022/03/11 05:31:40;;;;;;;7.25;4.35;;;;;;;14.08;27.42;97408.88;5051378;28;20466;-27
2022/03/11 05:34:07;;;;;;;8.60;4.75;;;;;;;14.08;27.41;97401.47;5037187;28;20037;-29
2022/03/11 05:36:33;;;;;;;9.73;5.32;;;;;;;14.05;27.42;97399.56;5053915;28;20021;-26
2022/03/11 05:38:59;;;;;;;10.55;5.20;;;;;;;14.13;27.46;97397.44;5045365;28;20017;-27
2022/03/11 05:41:25;;;;;;;9.80;5.30;;;;;;;14.02;27.32;97398.47;5034372;28;20033;-27
2022/03/11 05:43:51;;;;;;;8.65;5.05;;;;;;;14.03;27.63;97404.69;5035626;28;20100;-27
2022/03/11 05:46:16;;;;;;;11.88;5.85;;;;;;;14.08;27.50;97406.16;5054126;28;20021;-27
2022/03/11 05:48:42;;;;;;;7.75;4.72;;;;;;;14.07;27.29;97404.59;5048522;28;20032;-27
2022/03/11 05:51:07;;;;;;;9.55;5.18;;;;;;;14.11;27.47;97408.78;5036292;28;20036;-28
2022/03/11 05:53:34;;;;;;;8.40;4.38;;;;;;;14.09;27.48;97413.13;5054082;28;20036;-27
2022/03/11 05:55:59;;;;;;;10.75;5.15;;;;;;;14.12;27.77;97417.72;5035173;28;20029;-28
2022/03/11 05:58:25;;;;;;;12.25;5.57;;;;;;;14.00;27.16;97425.38;5044444;28;20083;-26
2022/03/11 06:00:50;;;;;;;9.80;5.28;;;;;;;14.05;27.41;97415.16;5034021;28;20032;-27
2022/03/11 06:03:16;;;;;;;8.52;4.60;;;;;;;14.12;27.54;97426.69;5034404;28;20101;-26
2022/03/11 06:05:42;;;;;;;8.88;4.78;;;;;;;14.10;27.60;97425.56;5048572;28;20068;-27
2022/03/11 06:08:08;;;;;;;7.85;4.70;;;;;;;14.09;27.42;97426.78;5038630;28;20036;-27
2022/03/11 06:10:33;;;;;;;13.80;5.32;;;;;;;14.11;27.44;97419.69;5040531;28;20033;-27
2022/03/11 06:12:59;;;;;;;9.88;5.13;;;;;;;14.14;27.65;97421.56;5047453;28;20132;-27
2022/03/11 06:15:24;;;;;;;11.82;4.97;;;;;;;14.03;27.76;97423.78;5040170;28;20036;-27
2022/03/11 06:17:50;;;;;;;9.13;4.65;;;;;;;14.01;27.85;97431.59;5019345;28;20109;-26
2022/03/11 06:20:15;;;;;;;13.18;5.78;;;;;;;14.01;27.68;97431.59;5011860;28;20030;-27
2022/03/11 06:22:49;;;;;;;10.48;5.00;;;;;;;14.05;27.60;97437.00;5021257;28;20033;-27
2022/03/11 06:25:16;;;;;;;7.65;4.25;;;;;;;14.03;27.74;97440.13;5020349;28;20033;-26
2022/03/11 06:27:42;;;;;;;14.55;5.93;;;;;;;14.06;27.79;97438.53;5012488;28;20121;-27
2022/03/11 06:30:08;;;;;;;11.70;5.80;;;;;;;14.08;27.86;97445.09;5016575;28;20112;-27
2022/03/11 06:32:43;;;;;;;9.25;5.45;;;;;;;14.12;27.66;97447.72;5011369;28;20045;-26
2022/03/11 06:35:10;;;;;;;12.30;5.80;;;;;;;14.03;27.74;97451.06;5022433;28;20430;-28
2022/03/11 06:37:36;;;;;;;10.45;6.20;;;;;;;14.05;27.57;97447.91;5018652;28;20482;-27
2022/03/11 06:40:02;;;;;;;10.13;5.35;;;;;;;13.95;27.88;97445.00;5011745;28;20033;-27
2022/03/11 06:42:42;;;;;;;9.50;5.60;;;;;;;14.07;27.77;97450.97;5011258;28;20026;-29
2022/03/11 06:45:08;;;;;;;10.30;5.40;;;;;;;14.03;27.63;97451.81;5020756;28;20385;-26
2022/03/11 06:47:35;;;;;;;10.40;5.05;;;;;;;13.84;28.00;97451.88;5019996;28;20030;-26
2022/03/11 06:50:01;;;;;;;9.52;5.22;;;;;;;13.99;27.70;97448.41;5011725;28;20026;-27
2022/03/11 06:52:27;;;;;;;8.63;4.90;;;;;;;13.98;28.02;97457.75;5011789;28;20030;-27
2022/03/11 06:54:53;;;;;;;11.85;5.45;;;;;;;14.03;28.11;97457.28;5022535;28;20385;-27
2022/03/11 06:57:20;;;;;;;9.95;4.65;;;;;;;14.00;28.20;97462.81;5011562;28;20029;-26
2022/03/11 06:59:47;;;;;;;10.25;5.10;;;;;;;14.00;28.02;97463.56;5011598;28;20026;-27
2022/03/11 07:02:13;;;;;;;9.68;4.95;;;;;;;14.03;27.88;97462.72;5011539;28;20034;-26
2022/03/11 07:04:39;;;;;;;10.85;4.88;;;;;;;14.03;28.09;97467.41;5016994;28;20037;-26
2022/03/11 07:07:05;;;;;;;9.60;4.95;;;;;;;14.01;28.20;97470.56;5031116;28;20036;-27
2022/03/11 07:09:30;;;;;;;10.23;4.95;;;;;;;14.01;28.18;97476.00;5020563;28;20022;-28
2022/03/11 07:11:57;;;;;;;11.48;5.20;;;;;;;14.06;27.88;97471.25;5011351;28;20091;-26
2022/03/11 07:14:24;;;;;;;9.10;4.75;;;;;;;14.02;27.84;97474.81;5014318;28;20034;-26
2022/03/11 07:16:52;;;;;;;11.65;5.40;;;;;;;14.06;27.77;97482.16;5029700;28;20030;-27
2022/03/11 07:19:19;;;;;;;10.68;4.95;;;;;;;13.97;28.14;97483.50;5012809;28;20060;-27
2022/03/11 07:21:44;;;;;;;9.90;4.90;;;;;;;14.02;28.21;97493.91;5014181;28;20037;-26
2022/03/11 07:24:10;;;;;;;8.27;4.80;;;;;;;14.06;27.90;97499.31;5031456;28;20662;-27
2022/03/11 07:26:36;;;;;;;10.00;4.80;;;;;;;14.10;28.10;97491.78;5031336;28;20449;-27
2022/03/11 07:29:02;;;;;;;13.38;4.97;;;;;;;14.06;28.05;97493.09;5050966;28;20385;-27
2022/03/11 07:31:28;;;;;;;8.65;4.82;;;;;;;14.08;28.21;97502.38;5038396;28;20058;-27
2022/03/11 07:33:55;;;;;;;12.77;4.95;;;;;;;13.99;28.26;97511.13;5034696;28;20029;-28
2022/03/11 07:36:20;;;;;;;11.13;4.35;;;;;;;13.99;28.52;97513.84;5034784;28;20025;-27
2022/03/11 07:38:46;;;;;;;11.05;4.45;;;;;;;13.93;28.31;97510.09;5051929;28;20040;-28
2022/03/11 07:41:14;;;;;;;10.45;4.57;;;;;;;13.91;28.39;97515.19;5043534;28;20111;-28
2022/03/11 07:43:46;;;;;;;12.27;4.60;;;;;;;14.00;28.52;97512.66;5034740;28;20077;-27
2022/03/11 07:46:14;;;;;;;8.48;4.30;;;;;;;13.97;28.67;97535.31;5034607;28;20033;-26
2022/03/11 07:48:40;;;;;;;8.98;4.95;;;;;;;14.02;28.41;97525.88;5034702;28;20063;-27
2022/03/11 07:51:06;;;;;;;8.32;4.40;;;;;;;14.05;28.39;97521.53;5044250;28;20044;-26
2022/03/11 07:53:32;;;;;;;9.48;4.38;;;;;;;14.05;28.38;97518.81;5054395;28;20055;-27
2022/03/11 07:55:59;;;;;;;9.00;4.18;;;;;;;13.97;28.56;97527.13;5053964;28;20733;-26
2022/03/11 07:58:24;;;;;;;8.60;4.32;;;;;;;14.00;28.85;97529.03;5051338;28;20043;-26
2022/03/11 08:00:52;;;;;;;7.80;4.22;;;;;;;14.06;28.34;97529.31;5037141;28;20017;-26
2022/03/11 08:03:18;;;;;;;7.40;4.03;;;;;;;14.02;28.65;97526.66;5034264;28;20083;-27
2022/03/11 08:05:44;;;;;;;7.15;3.67;;;;;;;14.06;28.57;97529.31;5043365;28;20041;-27
2022/03/11 08:08:15;;;;;;;7.22;3.78;;;;;;;14.06;28.53;97536.72;5054126;28;20440;-27
2022/03/11 08:10:44;;;;;;;8.18;4.35;;;;;;;13.99;28.79;97535.66;5043188;28;20075;-26
2022/03/11 08:13:16;;;;;;;6.88;3.92;;;;;;;13.99;29.05;97541.13;5039025;28;20040;-26
2022/03/11 08:15:42;;;;;;;6.10;3.50;;;;;;;13.90;28.87;97542.88;5034224;28;20033;-27
2022/03/11 08:18:09;;;;;;;7.50;3.97;;;;;;;13.83;29.35;97543.81;5047869;28;20036;-26
2022/03/11 08:23:29;;;;;;;8.40;4.18;;;;;;;14.07;28.67;97549.19;5033719;28;20037;-27
2022/03/11 08:26:06;;;;;;;5.93;3.85;;;;;;;14.05;29.00;97548.81;5033966;28;20538;-28
2022/03/11 08:28:35;;;;;;;5.95;3.47;;;;;;;14.11;29.25;97558.03;5034129;28;20087;-27
2022/03/11 08:31:01;;;;;;;7.25;3.95;;;;;;;13.97;28.98;97548.94;5035909;28;20488;-28
2022/03/11 08:33:30;;;;;;;9.55;3.80;;;;;;;14.09;29.19;97552.25;5046620;28;20037;-26
2022/03/11 08:35:56;;;;;;;7.38;3.95;;;;;;;13.49;30.10;97554.97;5035013;28;20033;-28
2022/03/11 08:38:21;;;;;;;6.95;4.50;;;;;;;13.20;31.18;97557.47;5036897;28;20036;-27
2022/03/11 08:40:47;;;;;;;10.90;4.30;;;;;;;13.53;30.65;97563.84;5041335;28;20417;-27
2022/03/11 08:43:16;;;;;;;7.53;4.50;;;;;;;13.49;30.94;97557.69;5039295;28;20037;-26
2022/03/11 08:45:42;;;;;;;11.43;4.70;;;;;;;13.64;31.29;97555.47;5055190;28;20035;-25
2022/03/11 08:48:08;;;;;;;8.82;4.43;;;;;;;13.55;31.16;97547.84;5053377;28;20476;-26
2022/03/11 08:50:34;;;;;;;7.55;4.13;;;;;;;13.78;30.39;97552.47;5053458;28;20029;-26
2022/03/11 08:53:00;;;;;;;7.32;4.22;;;;;;;13.74;30.87;97548.28;5043100;28;20082;-26
2022/03/11 08:55:26;;;;;;;7.15;4.10;;;;;;;13.79;30.67;97550.53;5034869;28;20028;-28
2022/03/11 08:57:52;;;;;;;7.28;3.97;;;;;;;13.76;30.60;97554.06;5035429;28;20389;-27
2022/03/11 09:00:20;;;;;;;6.85;3.88;;;;;;;13.89;30.54;97553.03;5039867;28;20437;-29
2022/03/11 09:02:46;;;;;;;6.03;4.03;;;;;;;13.83;30.70;97549.28;5047690;28;20028;-26
2022/03/11 09:05:13;;;;;;;8.05;3.80;;;;;;;13.58;31.09;97554.44;5046461;28;20359;-27
2022/03/11 09:07:39;;;;;;;6.63;4.20;;;;;;;13.58;30.79;97554.44;5045126;28;20048;-26
2022/03/11 09:10:09;;;;;;;6.30;3.85;;;;;;;13.58;31.08;97554.44;5055109;28;20051;-26
2022/03/11 09:12:35;;;;;;;9.02;4.72;;;;;;;13.51;31.56;97557.28;5047771;28;20029;-26
2022/03/11 09:15:01;;;;;;;6.38;4.18;;;;;;;13.80;30.73;97558.28;5023294;28;20030;-27
2022/03/11 09:17:26;;;;;;;8.18;3.83;;;;;;;13.78;31.12;97547.03;5011672;28;20038;-26
2022/03/11 09:19:54;;;;;;;7.55;4.25;;;;;;;13.80;31.31;97552.81;5012081;28;20018;-26
2022/03/11 09:22:20;;;;;;;6.47;3.90;;;;;;;13.47;31.86;97553.88;5029947;28;20033;-26
2022/03/11 09:24:46;;;;;;;8.13;4.05;;;;;;;13.54;32.09;97545.56;5046736;28;20086;-28
2022/03/11 09:27:12;;;;;;;6.55;3.75;;;;;;;13.63;31.70;97554.72;5052352;28;20059;-26
2022/03/11 09:29:39;;;;;;;6.28;3.78;;;;;;;13.53;31.37;97550.22;5052724;28;20024;-29
2022/03/11 09:32:07;;;;;;;6.07;3.83;;;;;;;13.13;33.54;97554.81;5044758;28;20025;-26
2022/03/11 09:34:33;;;;;;;5.45;3.33;;;;;;;13.38;32.80;97556.34;5037852;28;20075;-26
2022/03/11 09:36:59;;;;;;;5.63;3.72;;;;;;;13.54;32.40;97551.00;5038712;28;20025;-26
2022/03/11 09:39:25;;;;;;;7.03;4.32;;;;;;;13.53;32.62;97544.78;5034708;28;20537;-26
2022/03/11 09:41:51;;;;;;;5.68;4.13;;;;;;;13.54;32.67;97551.00;5034382;28;20600;-26
2022/03/11 09:44:18;;;;;;;6.75;4.10;;;;;;;13.16;35.02;97548.56;5034625;28;20378;-26
2022/03/11 09:46:45;;;;;;;7.65;3.78;;;;;;;13.57;33.71;97555.63;5034415;28;20030;-26
2022/03/11 09:49:15;;;;;;;5.30;3.53;;;;;;;13.55;32.55;97545.13;5034224;28;20109;-26
2022/03/11 09:51:42;;;;;;;6.57;3.45;;;;;;;13.80;31.91;97552.81;5033143;28;20482;-26
2022/03/11 09:54:09;;;;;;;5.28;3.08;;;;;;;13.76;31.70;97552.13;5033702;28;20108;-26
2022/03/11 09:56:36;;;;;;;4.90;3.40;;;;;;;13.89;31.35;97550.31;5033851;28;20032;-27
2022/03/11 09:59:02;;;;;;;7.20;3.35;;;;;;;13.82;31.76;97549.69;5040909;28;20029;-27
2022/03/11 10:01:28;;;;;;;5.75;2.90;;;;;;;13.84;31.92;97544.59;5042477;28;20033;-26
2022/03/11 10:03:53;;;;;;;6.18;3.45;;;;;;;13.98;31.77;97536.84;5033997;28;20363;-25
2022/03/11 10:06:45;;;;;;;6.18;3.30;;;;;;;13.95;32.28;97536.94;5034195;28;20029;-27
2022/03/11 10:09:19;;;;;;;7.05;3.42;;;;;;;14.00;31.98;97541.91;5033930;28;20359;-26
2022/03/11 10:11:46;;;;;;;7.35;4.10;;;;;;;13.64;34.27;97542.63;5034154;28;20033;-26
2022/03/11 10:14:12;;;;;;;7.55;3.92;;;;;;;13.78;33.38;97538.84;5032767;28;20029;-26
2022/03/11 10:16:40;;;;;;;5.82;3.85;;;;;;;13.93;32.46;97545.56;5033719;28;20393;-26
2022/03/11 10:19:10;;;;;;;6.50;3.88;;;;;;;13.87;34.21;97532.81;5033731;28;20061;-26
2022/03/11 10:21:43;;;;;;;7.45;4.18;;;;;;;13.70;34.23;97534.72;5038593;28;20025;-26
2022/03/11 10:24:14;;;;;;;7.30;3.53;;;;;;;13.74;34.59;97542.81;5033391;28;20108;-27
2022/03/11 10:26:54;;;;;;;6.57;3.28;;;;;;;13.82;33.33;97542.28;5033619;28;20025;-26
2022/03/11 10:29:25;;;;;;;6.00;3.53;;;;;;;13.59;34.03;97539.63;5034039;28;20021;-26
2022/03/11 10:31:53;;;;;;;4.78;3.17;;;;;;;13.65;34.91;97538.69;5034451;28;20029;-26
2022/03/11 10:34:26;;;;;;;6.75;3.97;;;;;;;13.43;36.48;97547.72;5053729;28;20373;-26
2022/03/11 10:37:03;;;;;;;11.13;4.10;;;;;;;13.42;36.77;97543.44;5040730;28;20033;-26
2022/03/11 10:39:38;;;;;;;7.13;4.28;;;;;;;13.69;34.81;97535.16;5032716;28;20025;-27
2022/03/11 10:42:12;;;;;;;7.47;4.13;;;;;;;13.55;35.94;97526.06;5032284;28;20025;-26
2022/03/11 10:44:53;;;;;;;5.75;3.75;;;;;;;13.90;34.32;97532.75;5033202;28;20060;-26
2022/03/11 10:47:23;;;;;;;6.85;3.45;;;;;;;13.74;35.24;97527.22;5033197;28;20458;-26
2022/03/11 10:49:50;;;;;;;7.32;4.32;;;;;;;13.83;34.58;97519.28;5032767;28;20563;-26
2022/03/11 10:52:36;;;;;;;6.15;3.55;;;;;;;13.97;34.03;97527.13;5033468;28;20030;-27
2022/03/11 10:55:17;;;;;;;7.43;3.60;;;;;;;14.08;34.14;97537.84;5032996;28;20430;-26
2022/03/11 10:57:43;;;;;;;6.50;3.63;;;;;;;14.13;34.81;97522.91;5033245;28;20032;-26
2022/03/11 11:00:17;;;;;;;7.88;4.15;;;;;;;13.97;34.46;97518.22;5033422;28;20041;-27
2022/03/11 11:02:44;;;;;;;8.93;4.05;;;;;;;13.85;34.41;97518.81;5033431;28;20022;-26
2022/03/11 11:05:12;;;;;;;6.95;3.90;;;;;;;13.81;35.23;97513.47;5035553;28;20077;-28
2022/03/11 11:07:40;;;;;;;5.22;3.22;;;;;;;14.11;33.55;97512.44;5037299;28;20112;-26
2022/03/11 11:10:06;;;;;;;7.00;3.50;;;;;;;14.11;33.61;97506.97;5037523;28;20415;-26
2022/03/11 11:12:33;;;;;;;7.72;3.75;;;;;;;14.03;34.01;97503.63;5037275;28;20083;-26
2022/03/11 11:14:58;;;;;;;5.60;3.40;;;;;;;14.11;33.63;97495.28;5037248;28;20029;-27
2022/03/11 11:17:27;;;;;;;5.40;3.45;;;;;;;14.12;33.64;97507.75;5037249;28;20435;-26
2022/03/11 11:19:56;;;;;;;5.88;3.50;;;;;;;14.22;33.45;97495.81;5036960;28;20386;-26
2022/03/11 11:22:25;;;;;;;6.47;3.30;;;;;;;14.24;33.35;97499.66;5037315;28;20053;-27
2022/03/11 11:24:54;;;;;;;5.53;3.38;;;;;;;14.23;33.19;97498.13;5037122;28;20034;-26
2022/03/11 11:27:20;;;;;;;5.50;3.47;;;;;;;14.26;33.21;97491.06;5037260;28;20029;-26
2022/03/11 11:29:49;;;;;;;5.53;3.53;;;;;;;14.25;33.20;97490.28;5037445;28;20080;-26
2022/03/11 11:32:17;;;;;;;6.25;3.80;;;;;;;14.24;33.74;97482.53;5035910;28;20580;-27
2022/03/11 11:34:43;;;;;;;4.75;2.97;;;;;;;14.28;33.36;97483.22;5034792;28;20359;-26